»·PEaware :: SWA2542 KSJC-KBUR

SWA2542 :: KSJC-KBUR

FLIGHT INFORMATION

Flight Status: Arrived
Operator:
Southwest Airlines
More flights by this operator :: More flights under this callsign
Pilot: Dave P. (45)
Aircraft: BOEING 737-700
(B737)
More flights by this aircraft type
Origin: KSJC Mineta San Jose Intl
United States
Destination: KBUR Bob Hope-Burbank
United States
More flights between these airports :: More routes between these airports
Route: +TECKY3 EBAYE BURGL HONZK ROKKR2
File this flight plan on PilotEdge
Remarks: PBN / A1B1C1D1S1S2 DOF / 180512 REG / N737PM EET / KZLA0020 OPR / SWA PER / C RMK / TCAS SIMBRIEF
Altitude:
(Current/Filed)
31,000ft
Speed:
(Current/Filed)
452kts
Departed: 11-May-18 05:06 PM
Arrived: 11-May-18 05:50 PM
Distance/Time
Traveled:
258nm/0:44
Distance/Time
To Go:
Arrived

Flight Plot

Page will automatically refresh every two minutes.

Flight plan parsing failed; only flown route is shown


Map Options




Map Legend


Flown Route
Filed Route
Departure Airport
Arrival Airport
Navaid (VOR, NDB)
Fix

Horizontal Profiles

Position Reports

Time Latitude Longitude Heading Altitude Ground
Speed
11-May-18 16:49 37.362363 -121.921414 48 70ft 0kts
11-May-18 16:50 37.362363 -121.921414 48 70ft 0kts
11-May-18 16:51 37.362363 -121.921414 48 70ft 0kts
11-May-18 16:52 37.362363 -121.921414 48 70ft 0kts
11-May-18 16:53 37.362363 -121.921414 48 70ft 0kts
11-May-18 16:54 37.362363 -121.921414 48 70ft 0kts
11-May-18 16:55 37.362363 -121.921414 48 70ft 0kts
11-May-18 16:56 37.362363 -121.921414 48 70ft 0kts
11-May-18 16:57 37.362337 -121.921452 48 69ft 1kts
11-May-18 16:58 37.362307 -121.922350 123 69ft 2kts
11-May-18 16:59 37.362351 -121.922427 127 69ft 0kts
11-May-18 17:00 37.362350 -121.922426 127 69ft 0kts
11-May-18 17:01 37.362114 -121.922500 221 70ft 8kts
11-May-18 17:02 37.358678 -121.919234 138 69ft 18kts
11-May-18 17:03 37.354855 -121.914753 161 69ft 10kts
11-May-18 17:04 37.353289 -121.915264 227 69ft 0kts
11-May-18 17:05 37.353066 -121.916148 318 70ft 5kts
11-May-18 17:06 37.369090 -121.933677 318 466ft 141kts
11-May-18 17:07 37.402160 -121.966862 342 2531ft 186kts
11-May-18 17:08 37.430162 -121.912538 114 4723ft 282kts
11-May-18 17:09 37.368673 -121.845944 127 8494ft 300kts
11-May-18 17:10 37.309691 -121.764631 134 11374ft 342kts
11-May-18 17:11 37.231723 -121.677334 136 13425ft 398kts
11-May-18 17:12 37.146231 -121.581220 137 16205ft 428kts
11-May-18 17:13 37.054704 -121.478329 138 18791ft 453kts
11-May-18 17:14 36.957024 -121.374486 140 21209ft 470kts
11-May-18 17:15 36.855637 -121.267039 141 22791ft 485kts
11-May-18 17:16 36.752175 -121.156881 142 24116ft 491kts
11-May-18 17:17 36.646893 -121.045873 142 25924ft 501kts
11-May-18 17:18 36.538247 -120.933938 144 27541ft 511kts
11-May-18 17:19 36.427657 -120.822071 144 29276ft 512kts
11-May-18 17:20 36.317823 -120.711036 144 30783ft 511kts
11-May-18 17:21 36.207950 -120.600036 144 30786ft 506kts
11-May-18 17:22 36.098934 -120.490359 144 30791ft 505kts
11-May-18 17:23 35.990093 -120.381395 144 30780ft 503kts
11-May-18 17:24 35.881172 -120.273015 145 30782ft 501kts
11-May-18 17:25 35.764622 -120.181719 153 30782ft 496kts
11-May-18 17:26 35.645173 -120.098142 162 30803ft 489kts
11-May-18 17:27 35.517763 -120.040166 165 30815ft 487kts
11-May-18 17:28 35.390877 -119.982903 164 30815ft 485kts
11-May-18 17:29 35.264269 -119.925633 164 30652ft 480kts
11-May-18 17:30 35.140053 -119.869310 162 27848ft 473kts
11-May-18 17:31 35.031469 -119.779925 142 25322ft 471kts
11-May-18 17:32 34.932580 -119.677399 143 22823ft 460kts
11-May-18 17:33 34.843410 -119.572622 131 20924ft 429kts
11-May-18 17:34 34.769679 -119.461685 131 19055ft 412kts
11-May-18 17:35 34.698850 -119.353366 130 16773ft 403kts
11-May-18 17:36 34.632715 -119.248838 123 15076ft 378kts
11-May-18 17:37 34.589149 -119.159205 122 13690ft 364kts
11-May-18 17:38 34.536906 -119.063462 136 12117ft 326kts
11-May-18 17:39 34.466369 -118.997748 145 10472ft 314kts
11-May-18 17:40 34.399574 -118.933923 142 9300ft 296kts
11-May-18 17:41 34.338099 -118.869202 138 8238ft 290kts
11-May-18 17:42 34.281556 -118.807136 138 7238ft 254kts
11-May-18 17:43 34.248971 -118.737620 112 6384ft 216kts
11-May-18 17:44 34.226264 -118.671808 112 4717ft 208kts
11-May-18 17:45 34.205119 -118.608202 112 3692ft 202kts
11-May-18 17:46 34.200165 -118.543205 92 3502ft 187kts
11-May-18 17:47 34.199445 -118.482236 93 2555ft 176kts
11-May-18 17:48 34.198729 -118.429541 93 1711ft 141kts
11-May-18 17:49 34.198098 -118.383238 93 985ft 136kts
11-May-18 17:50 34.197654 -118.350819 91 729ft 13kts
11-May-18 17:51 34.197148 -118.351515 270 729ft 0kts
11-May-18 17:52 34.196832 -118.352681 180 729ft 0kts
11-May-18 17:53 34.196832 -118.352681 180 729ft 0kts
11-May-18 17:54 34.196832 -118.352681 180 729ft 0kts
11-May-18 17:55 34.196832 -118.352681 180 729ft 0kts
11-May-18 17:56 34.196832 -118.352681 180 729ft 0kts
11-May-18 17:57 34.196832 -118.352681 180 729ft 0kts
11-May-18 17:58 34.196832 -118.352681 180 729ft 0kts
11-May-18 17:59 34.196832 -118.352681 180 729ft 0kts
11-May-18 18:00 34.196832 -118.352681 180 729ft 0kts
11-May-18 18:01 34.196832 -118.352681 180 729ft 0kts

Navigation Log

Ident Type
Flight plan parsing failed, navigation log unavailable